sensor_id;sensor_type;location;lat;lon;timestamp;P1;durP1;ratioP1;P2;durP2;ratioP2
40599;SDS011;26309;50.924;4.754;2022-11-20T00:01:17;35.13;;;25.07;;
40599;SDS011;26309;50.924;4.754;2022-11-20T00:03:45;34.43;;;25.03;;
40599;SDS011;26309;50.924;4.754;2022-11-20T00:06:13;36.77;;;25.40;;
40599;SDS011;26309;50.924;4.754;2022-11-20T00:08:44;34.90;;;23.87;;
40599;SDS011;26309;50.924;4.754;2022-11-20T00:11:12;34.97;;;24.27;;
40599;SDS011;26309;50.924;4.754;2022-11-20T00:13:40;38.10;;;25.27;;
40599;SDS011;26309;50.924;4.754;2022-11-20T00:16:06;39.50;;;27.40;;
40599;SDS011;26309;50.924;4.754;2022-11-20T00:18:34;36.57;;;25.43;;
40599;SDS011;26309;50.924;4.754;2022-11-20T00:21:01;37.83;;;26.33;;
40599;SDS011;26309;50.924;4.754;2022-11-20T00:23:32;39.77;;;26.57;;
40599;SDS011;26309;50.924;4.754;2022-11-20T00:26:02;36.47;;;25.73;;
40599;SDS011;26309;50.924;4.754;2022-11-20T00:28:29;40.87;;;27.50;;
40599;SDS011;26309;50.924;4.754;2022-11-20T00:31:09;43.93;;;27.30;;
40599;SDS011;26309;50.924;4.754;2022-11-20T00:33:37;43.43;;;27.30;;
40599;SDS011;26309;50.924;4.754;2022-11-20T00:36:08;37.40;;;24.73;;
40599;SDS011;26309;50.924;4.754;2022-11-20T00:38:42;38.90;;;25.83;;
40599;SDS011;26309;50.924;4.754;2022-11-20T00:41:10;38.33;;;25.73;;
40599;SDS011;26309;50.924;4.754;2022-11-20T00:43:38;40.77;;;26.07;;
40599;SDS011;26309;50.924;4.754;2022-11-20T00:46:13;37.07;;;25.87;;
40599;SDS011;26309;50.924;4.754;2022-11-20T00:48:44;36.40;;;24.80;;
40599;SDS011;26309;50.924;4.754;2022-11-20T00:51:11;34.17;;;23.77;;
40599;SDS011;26309;50.924;4.754;2022-11-20T00:53:39;39.50;;;25.90;;
40599;SDS011;26309;50.924;4.754;2022-11-20T00:56:07;36.47;;;25.53;;
40599;SDS011;26309;50.924;4.754;2022-11-20T00:58:37;40.40;;;25.83;;
40599;SDS011;26309;50.924;4.754;2022-11-20T01:01:08;37.80;;;25.67;;
40599;SDS011;26309;50.924;4.754;2022-11-20T01:03:40;39.30;;;25.63;;
40599;SDS011;26309;50.924;4.754;2022-11-20T01:06:09;39.17;;;26.40;;
40599;SDS011;26309;50.924;4.754;2022-11-20T01:08:45;38.43;;;25.87;;
40599;SDS011;26309;50.924;4.754;2022-11-20T01:11:13;38.07;;;25.77;;
40599;SDS011;26309;50.924;4.754;2022-11-20T01:13:42;36.97;;;23.97;;
40599;SDS011;26309;50.924;4.754;2022-11-20T01:18:40;36.23;;;25.73;;
40599;SDS011;26309;50.924;4.754;2022-11-20T01:21:08;36.53;;;25.37;;
40599;SDS011;26309;50.924;4.754;2022-11-20T01:23:43;38.70;;;27.03;;
40599;SDS011;26309;50.924;4.754;2022-11-20T01:26:11;39.93;;;27.23;;
40599;SDS011;26309;50.924;4.754;2022-11-20T01:28:40;38.00;;;25.87;;
40599;SDS011;26309;50.924;4.754;2022-11-20T01:33:43;35.03;;;24.77;;
40599;SDS011;26309;50.924;4.754;2022-11-20T01:38:46;40.33;;;27.00;;
40599;SDS011;26309;50.924;4.754;2022-11-20T01:41:12;38.00;;;26.50;;
40599;SDS011;26309;50.924;4.754;2022-11-20T01:44:00;35.67;;;23.97;;
40599;SDS011;26309;50.924;4.754;2022-11-20T01:46:26;38.77;;;26.57;;
40599;SDS011;26309;50.924;4.754;2022-11-20T01:51:44;41.57;;;27.70;;
40599;SDS011;26309;50.924;4.754;2022-11-20T01:54:20;38.30;;;26.40;;
40599;SDS011;26309;50.924;4.754;2022-11-20T01:56:50;39.10;;;26.07;;
40599;SDS011;26309;50.924;4.754;2022-11-20T01:59:21;38.23;;;25.97;;
40599;SDS011;26309;50.924;4.754;2022-11-20T02:01:48;35.87;;;25.40;;
40599;SDS011;26309;50.924;4.754;2022-11-20T02:04:14;35.80;;;24.73;;
40599;SDS011;26309;50.924;4.754;2022-11-20T02:06:46;37.90;;;25.40;;
40599;SDS011;26309;50.924;4.754;2022-11-20T02:09:15;38.87;;;25.57;;
40599;SDS011;26309;50.924;4.754;2022-11-20T02:11:41;37.80;;;26.20;;
40599;SDS011;26309;50.924;4.754;2022-11-20T02:14:07;39.93;;;27.80;;
40599;SDS011;26309;50.924;4.754;2022-11-20T02:16:35;42.80;;;27.87;;
40599;SDS011;26309;50.924;4.754;2022-11-20T02:19:06;39.50;;;27.20;;
40599;SDS011;26309;50.924;4.754;2022-11-20T02:24:19;42.00;;;26.17;;
40599;SDS011;26309;50.924;4.754;2022-11-20T02:26:50;39.60;;;27.90;;
40599;SDS011;26309;50.924;4.754;2022-11-20T02:29:22;42.10;;;27.73;;
40599;SDS011;26309;50.924;4.754;2022-11-20T02:32:23;39.57;;;27.57;;
40599;SDS011;26309;50.924;4.754;2022-11-20T02:34:54;41.90;;;27.10;;
40599;SDS011;26309;50.924;4.754;2022-11-20T02:37:20;48.90;;;29.50;;
40599;SDS011;26309;50.924;4.754;2022-11-20T02:39:47;41.10;;;27.93;;
40599;SDS011;26309;50.924;4.754;2022-11-20T02:42:15;42.83;;;28.20;;
40599;SDS011;26309;50.924;4.754;2022-11-20T02:44:41;49.30;;;30.13;;
40599;SDS011;26309;50.924;4.754;2022-11-20T02:47:06;50.97;;;30.97;;
40599;SDS011;26309;50.924;4.754;2022-11-20T02:49:32;47.00;;;29.33;;
40599;SDS011;26309;50.924;4.754;2022-11-20T02:51:58;45.57;;;29.47;;
40599;SDS011;26309;50.924;4.754;2022-11-20T02:54:24;44.07;;;29.33;;
40599;SDS011;26309;50.924;4.754;2022-11-20T02:56:50;43.07;;;29.77;;
40599;SDS011;26309;50.924;4.754;2022-11-20T02:59:16;45.43;;;29.60;;
40599;SDS011;26309;50.924;4.754;2022-11-20T03:01:42;51.40;;;31.73;;
40599;SDS011;26309;50.924;4.754;2022-11-20T03:04:08;52.57;;;32.23;;
40599;SDS011;26309;50.924;4.754;2022-11-20T03:06:34;54.07;;;32.13;;
40599;SDS011;26309;50.924;4.754;2022-11-20T03:09:00;58.07;;;32.83;;
40599;SDS011;26309;50.924;4.754;2022-11-20T03:11:26;53.97;;;33.23;;
40599;SDS011;26309;50.924;4.754;2022-11-20T03:13:52;57.30;;;33.60;;
40599;SDS011;26309;50.924;4.754;2022-11-20T03:16:19;55.80;;;33.70;;
40599;SDS011;26309;50.924;4.754;2022-11-20T03:18:46;60.90;;;34.13;;
40599;SDS011;26309;50.924;4.754;2022-11-20T03:21:12;61.53;;;35.20;;
40599;SDS011;26309;50.924;4.754;2022-11-20T03:23:40;58.40;;;33.43;;
40599;SDS011;26309;50.924;4.754;2022-11-20T03:26:07;57.27;;;34.67;;
40599;SDS011;26309;50.924;4.754;2022-11-20T03:28:41;58.60;;;33.07;;
40599;SDS011;26309;50.924;4.754;2022-11-20T03:31:12;55.40;;;33.17;;
40599;SDS011;26309;50.924;4.754;2022-11-20T03:33:39;58.73;;;35.07;;
40599;SDS011;26309;50.924;4.754;2022-11-20T03:36:06;59.27;;;36.33;;
40599;SDS011;26309;50.924;4.754;2022-11-20T03:38:37;59.20;;;35.57;;
40599;SDS011;26309;50.924;4.754;2022-11-20T03:41:04;57.90;;;34.23;;
40599;SDS011;26309;50.924;4.754;2022-11-20T03:43:32;58.00;;;35.30;;
40599;SDS011;26309;50.924;4.754;2022-11-20T03:45:58;59.60;;;33.40;;
40599;SDS011;26309;50.924;4.754;2022-11-20T03:48:24;62.17;;;36.37;;
40599;SDS011;26309;50.924;4.754;2022-11-20T03:50:51;61.80;;;34.93;;
40599;SDS011;26309;50.924;4.754;2022-11-20T03:53:18;60.40;;;34.40;;
40599;SDS011;26309;50.924;4.754;2022-11-20T03:55:45;60.53;;;34.53;;
40599;SDS011;26309;50.924;4.754;2022-11-20T03:58:19;66.27;;;36.00;;
40599;SDS011;26309;50.924;4.754;2022-11-20T04:00:45;66.57;;;35.97;;
40599;SDS011;26309;50.924;4.754;2022-11-20T04:03:11;67.27;;;37.30;;
40599;SDS011;26309;50.924;4.754;2022-11-20T04:05:36;70.57;;;39.30;;
40599;SDS011;26309;50.924;4.754;2022-11-20T04:08:02;68.50;;;36.43;;
40599;SDS011;26309;50.924;4.754;2022-11-20T04:10:28;69.57;;;38.10;;
40599;SDS011;26309;50.924;4.754;2022-11-20T04:12:54;70.67;;;37.70;;
40599;SDS011;26309;50.924;4.754;2022-11-20T04:15:20;72.70;;;38.67;;
40599;SDS011;26309;50.924;4.754;2022-11-20T04:17:46;69.47;;;38.17;;
40599;SDS011;26309;50.924;4.754;2022-11-20T04:20:12;70.40;;;38.77;;
40599;SDS011;26309;50.924;4.754;2022-11-20T04:22:38;71.93;;;39.90;;
40599;SDS011;26309;50.924;4.754;2022-11-20T04:25:04;75.17;;;39.30;;
40599;SDS011;26309;50.924;4.754;2022-11-20T04:27:30;73.93;;;39.37;;
40599;SDS011;26309;50.924;4.754;2022-11-20T04:29:56;78.57;;;39.10;;
40599;SDS011;26309;50.924;4.754;2022-11-20T04:32:21;72.47;;;38.83;;
40599;SDS011;26309;50.924;4.754;2022-11-20T04:34:47;71.87;;;39.00;;
40599;SDS011;26309;50.924;4.754;2022-11-20T04:37:13;78.17;;;39.50;;
40599;SDS011;26309;50.924;4.754;2022-11-20T04:39:39;78.47;;;40.63;;
40599;SDS011;26309;50.924;4.754;2022-11-20T04:42:05;84.87;;;40.00;;
40599;SDS011;26309;50.924;4.754;2022-11-20T04:44:49;78.27;;;39.93;;
40599;SDS011;26309;50.924;4.754;2022-11-20T04:47:15;80.13;;;39.90;;
40599;SDS011;26309;50.924;4.754;2022-11-20T04:49:40;83.47;;;40.60;;
40599;SDS011;26309;50.924;4.754;2022-11-20T04:52:06;81.33;;;40.63;;
40599;SDS011;26309;50.924;4.754;2022-11-20T04:54:32;85.00;;;42.00;;
40599;SDS011;26309;50.924;4.754;2022-11-20T04:56:58;79.13;;;40.77;;
40599;SDS011;26309;50.924;4.754;2022-11-20T04:59:24;73.47;;;39.07;;
40599;SDS011;26309;50.924;4.754;2022-11-20T05:01:49;86.90;;;41.10;;
40599;SDS011;26309;50.924;4.754;2022-11-20T05:04:15;79.67;;;40.43;;
40599;SDS011;26309;50.924;4.754;2022-11-20T05:06:41;86.53;;;40.13;;
40599;SDS011;26309;50.924;4.754;2022-11-20T05:09:07;71.03;;;38.23;;
40599;SDS011;26309;50.924;4.754;2022-11-20T05:11:33;73.07;;;37.93;;
40599;SDS011;26309;50.924;4.754;2022-11-20T05:13:59;79.03;;;40.33;;
40599;SDS011;26309;50.924;4.754;2022-11-20T05:16:25;81.90;;;38.93;;
40599;SDS011;26309;50.924;4.754;2022-11-20T05:18:51;80.77;;;39.13;;
40599;SDS011;26309;50.924;4.754;2022-11-20T05:21:19;75.07;;;38.23;;
40599;SDS011;26309;50.924;4.754;2022-11-20T05:23:45;73.93;;;38.77;;
40599;SDS011;26309;50.924;4.754;2022-11-20T05:26:19;80.33;;;38.90;;
40599;SDS011;26309;50.924;4.754;2022-11-20T05:28:46;77.63;;;39.73;;
40599;SDS011;26309;50.924;4.754;2022-11-20T05:31:14;75.63;;;39.63;;
40599;SDS011;26309;50.924;4.754;2022-11-20T05:33:43;81.67;;;37.93;;
40599;SDS011;26309;50.924;4.754;2022-11-20T05:36:10;71.87;;;38.87;;
40599;SDS011;26309;50.924;4.754;2022-11-20T05:38:40;74.43;;;38.53;;
40599;SDS011;26309;50.924;4.754;2022-11-20T05:41:10;75.70;;;40.23;;
40599;SDS011;26309;50.924;4.754;2022-11-20T05:43:38;79.60;;;37.67;;
40599;SDS011;26309;50.924;4.754;2022-11-20T05:46:05;81.50;;;39.47;;
40599;SDS011;26309;50.924;4.754;2022-11-20T05:48:33;89.93;;;39.77;;
40599;SDS011;26309;50.924;4.754;2022-11-20T05:51:02;78.60;;;40.67;;
40599;SDS011;26309;50.924;4.754;2022-11-20T05:53:29;85.13;;;40.23;;
40599;SDS011;26309;50.924;4.754;2022-11-20T05:56:00;86.07;;;40.33;;
40599;SDS011;26309;50.924;4.754;2022-11-20T05:58:28;80.50;;;40.43;;
40599;SDS011;26309;50.924;4.754;2022-11-20T06:00:54;81.87;;;39.37;;
40599;SDS011;26309;50.924;4.754;2022-11-20T06:03:27;80.43;;;39.70;;
40599;SDS011;26309;50.924;4.754;2022-11-20T06:05:53;78.97;;;38.67;;
40599;SDS011;26309;50.924;4.754;2022-11-20T06:08:20;80.73;;;37.47;;
40599;SDS011;26309;50.924;4.754;2022-11-20T06:10:45;77.87;;;40.00;;
40599;SDS011;26309;50.924;4.754;2022-11-20T06:13:11;86.27;;;40.57;;
40599;SDS011;26309;50.924;4.754;2022-11-20T06:15:38;75.10;;;39.30;;
40599;SDS011;26309;50.924;4.754;2022-11-20T06:18:04;80.40;;;40.73;;
40599;SDS011;26309;50.924;4.754;2022-11-20T06:20:30;71.50;;;39.40;;
40599;SDS011;26309;50.924;4.754;2022-11-20T06:22:56;66.93;;;36.83;;
40599;SDS011;26309;50.924;4.754;2022-11-20T06:25:21;69.23;;;37.80;;
40599;SDS011;26309;50.924;4.754;2022-11-20T06:27:47;73.07;;;39.23;;
40599;SDS011;26309;50.924;4.754;2022-11-20T06:30:13;73.43;;;38.23;;
40599;SDS011;26309;50.924;4.754;2022-11-20T06:32:39;72.23;;;37.03;;
40599;SDS011;26309;50.924;4.754;2022-11-20T06:35:05;70.73;;;37.03;;
40599;SDS011;26309;50.924;4.754;2022-11-20T06:37:31;72.07;;;38.27;;
40599;SDS011;26309;50.924;4.754;2022-11-20T06:39:57;67.03;;;35.63;;
40599;SDS011;26309;50.924;4.754;2022-11-20T06:42:23;62.30;;;35.40;;
40599;SDS011;26309;50.924;4.754;2022-11-20T06:44:49;71.50;;;37.27;;
40599;SDS011;26309;50.924;4.754;2022-11-20T06:47:14;72.43;;;37.43;;
40599;SDS011;26309;50.924;4.754;2022-11-20T06:49:40;73.20;;;36.77;;
40599;SDS011;26309;50.924;4.754;2022-11-20T06:52:06;68.00;;;36.80;;
40599;SDS011;26309;50.924;4.754;2022-11-20T06:54:32;74.33;;;39.20;;
40599;SDS011;26309;50.924;4.754;2022-11-20T06:56:57;71.60;;;36.93;;
40599;SDS011;26309;50.924;4.754;2022-11-20T06:59:23;65.17;;;36.07;;
40599;SDS011;26309;50.924;4.754;2022-11-20T07:01:49;60.00;;;34.37;;
40599;SDS011;26309;50.924;4.754;2022-11-20T07:04:16;67.23;;;36.07;;
40599;SDS011;26309;50.924;4.754;2022-11-20T07:06:42;60.17;;;34.00;;
40599;SDS011;26309;50.924;4.754;2022-11-20T07:09:07;65.03;;;33.83;;
40599;SDS011;26309;50.924;4.754;2022-11-20T07:11:33;56.73;;;32.57;;
40599;SDS011;26309;50.924;4.754;2022-11-20T07:13:59;57.97;;;32.07;;
40599;SDS011;26309;50.924;4.754;2022-11-20T07:16:25;61.60;;;33.73;;
40599;SDS011;26309;50.924;4.754;2022-11-20T07:18:51;62.73;;;32.20;;
40599;SDS011;26309;50.924;4.754;2022-11-20T07:21:17;64.27;;;32.90;;
40599;SDS011;26309;50.924;4.754;2022-11-20T07:23:43;65.30;;;33.83;;
40599;SDS011;26309;50.924;4.754;2022-11-20T07:26:09;60.43;;;31.80;;
40599;SDS011;26309;50.924;4.754;2022-11-20T07:28:36;71.40;;;33.37;;
40599;SDS011;26309;50.924;4.754;2022-11-20T07:31:05;61.73;;;32.20;;
40599;SDS011;26309;50.924;4.754;2022-11-20T07:33:32;63.47;;;33.57;;
40599;SDS011;26309;50.924;4.754;2022-11-20T07:35:58;70.33;;;34.37;;
40599;SDS011;26309;50.924;4.754;2022-11-20T07:38:25;70.23;;;32.70;;
40599;SDS011;26309;50.924;4.754;2022-11-20T07:40:54;69.77;;;33.97;;
40599;SDS011;26309;50.924;4.754;2022-11-20T07:43:26;74.57;;;33.90;;
40599;SDS011;26309;50.924;4.754;2022-11-20T07:45:56;72.93;;;33.17;;
40599;SDS011;26309;50.924;4.754;2022-11-20T07:48:23;74.10;;;34.23;;
40599;SDS011;26309;50.924;4.754;2022-11-20T07:50:49;71.97;;;33.17;;
40599;SDS011;26309;50.924;4.754;2022-11-20T07:53:18;77.20;;;35.43;;
40599;SDS011;26309;50.924;4.754;2022-11-20T07:55:45;75.87;;;34.23;;
40599;SDS011;26309;50.924;4.754;2022-11-20T07:58:11;83.37;;;35.77;;
40599;SDS011;26309;50.924;4.754;2022-11-20T08:00:38;81.23;;;34.97;;
40599;SDS011;26309;50.924;4.754;2022-11-20T08:03:05;77.93;;;34.07;;
40599;SDS011;26309;50.924;4.754;2022-11-20T08:05:32;78.50;;;34.83;;
40599;SDS011;26309;50.924;4.754;2022-11-20T08:07:58;77.73;;;33.47;;
40599;SDS011;26309;50.924;4.754;2022-11-20T08:10:23;86.03;;;36.23;;
40599;SDS011;26309;50.924;4.754;2022-11-20T08:12:50;79.37;;;34.13;;
40599;SDS011;26309;50.924;4.754;2022-11-20T08:15:36;79.07;;;34.90;;
40599;SDS011;26309;50.924;4.754;2022-11-20T08:18:07;83.73;;;35.43;;
40599;SDS011;26309;50.924;4.754;2022-11-20T08:20:37;91.43;;;35.93;;
40599;SDS011;26309;50.924;4.754;2022-11-20T08:23:04;80.50;;;34.47;;
40599;SDS011;26309;50.924;4.754;2022-11-20T08:25:31;83.47;;;35.00;;
40599;SDS011;26309;50.924;4.754;2022-11-20T08:27:58;85.90;;;35.60;;
40599;SDS011;26309;50.924;4.754;2022-11-20T08:30:26;82.70;;;35.23;;
40599;SDS011;26309;50.924;4.754;2022-11-20T08:32:52;81.73;;;35.40;;
40599;SDS011;26309;50.924;4.754;2022-11-20T08:35:18;84.73;;;36.93;;
40599;SDS011;26309;50.924;4.754;2022-11-20T08:37:48;78.00;;;34.60;;
40599;SDS011;26309;50.924;4.754;2022-11-20T08:40:14;83.83;;;35.43;;
40599;SDS011;26309;50.924;4.754;2022-11-20T08:42:49;77.63;;;34.83;;
40599;SDS011;26309;50.924;4.754;2022-11-20T08:45:16;88.63;;;36.93;;
40599;SDS011;26309;50.924;4.754;2022-11-20T08:47:43;78.87;;;35.47;;
40599;SDS011;26309;50.924;4.754;2022-11-20T08:50:10;83.60;;;35.50;;
40599;SDS011;26309;50.924;4.754;2022-11-20T08:52:37;83.53;;;35.47;;
40599;SDS011;26309;50.924;4.754;2022-11-20T08:55:03;81.33;;;34.50;;
40599;SDS011;26309;50.924;4.754;2022-11-20T08:57:33;82.60;;;37.33;;
40599;SDS011;26309;50.924;4.754;2022-11-20T09:00:00;83.50;;;34.63;;
40599;SDS011;26309;50.924;4.754;2022-11-20T09:02:26;85.20;;;33.80;;
40599;SDS011;26309;50.924;4.754;2022-11-20T09:04:52;81.73;;;34.53;;
40599;SDS011;26309;50.924;4.754;2022-11-20T09:07:22;85.10;;;35.90;;
40599;SDS011;26309;50.924;4.754;2022-11-20T09:09:47;90.40;;;34.57;;
40599;SDS011;26309;50.924;4.754;2022-11-20T09:12:13;84.83;;;35.93;;
40599;SDS011;26309;50.924;4.754;2022-11-20T09:14:39;76.90;;;35.00;;
40599;SDS011;26309;50.924;4.754;2022-11-20T09:17:05;83.17;;;35.23;;
40599;SDS011;26309;50.924;4.754;2022-11-20T09:19:33;80.23;;;33.67;;
40599;SDS011;26309;50.924;4.754;2022-11-20T09:21:59;78.23;;;33.80;;
40599;SDS011;26309;50.924;4.754;2022-11-20T09:24:25;78.60;;;34.27;;
40599;SDS011;26309;50.924;4.754;2022-11-20T09:26:51;78.23;;;34.10;;
40599;SDS011;26309;50.924;4.754;2022-11-20T09:29:17;77.63;;;33.90;;
40599;SDS011;26309;50.924;4.754;2022-11-20T09:31:43;81.97;;;33.50;;
40599;SDS011;26309;50.924;4.754;2022-11-20T09:34:09;83.30;;;35.47;;
40599;SDS011;26309;50.924;4.754;2022-11-20T09:36:35;76.77;;;32.50;;
40599;SDS011;26309;50.924;4.754;2022-11-20T09:39:01;72.90;;;31.63;;
40599;SDS011;26309;50.924;4.754;2022-11-20T09:41:31;87.13;;;35.23;;
40599;SDS011;26309;50.924;4.754;2022-11-20T09:47:12;76.70;;;32.67;;
40599;SDS011;26309;50.924;4.754;2022-11-20T09:53:10;70.90;;;31.27;;
40599;SDS011;26309;50.924;4.754;2022-11-20T09:55:39;68.33;;;31.13;;
40599;SDS011;26309;50.924;4.754;2022-11-20T09:58:05;72.30;;;30.40;;
40599;SDS011;26309;50.924;4.754;2022-11-20T10:00:37;66.10;;;30.43;;
40599;SDS011;26309;50.924;4.754;2022-11-20T10:03:14;67.50;;;30.27;;
40599;SDS011;26309;50.924;4.754;2022-11-20T10:05:47;62.17;;;29.43;;
40599;SDS011;26309;50.924;4.754;2022-11-20T10:30:19;54.80;;;26.87;;
40599;SDS011;26309;50.924;4.754;2022-11-20T10:32:47;49.83;;;24.67;;
40599;SDS011;26309;50.924;4.754;2022-11-20T10:37:50;49.87;;;26.07;;
40599;SDS011;26309;50.924;4.754;2022-11-20T10:42:54;44.23;;;24.17;;
40599;SDS011;26309;50.924;4.754;2022-11-20T10:47:53;42.40;;;23.13;;
40599;SDS011;26309;50.924;4.754;2022-11-20T10:51:35;43.80;;;23.03;;
40599;SDS011;26309;50.924;4.754;2022-11-20T10:53:58;48.67;;;22.70;;
40599;SDS011;26309;50.924;4.754;2022-11-20T10:56:52;43.00;;;21.67;;
40599;SDS011;26309;50.924;4.754;2022-11-20T11:02:16;36.65;;;19.92;;
40599;SDS011;26309;50.924;4.754;2022-11-20T11:04:44;37.22;;;19.80;;
40599;SDS011;26309;50.924;4.754;2022-11-20T11:07:33;33.97;;;18.52;;
40599;SDS011;26309;50.924;4.754;2022-11-20T11:10:05;34.20;;;17.75;;
40599;SDS011;26309;50.924;4.754;2022-11-20T11:12:43;32.13;;;17.90;;
40599;SDS011;26309;50.924;4.754;2022-11-20T11:18:04;31.77;;;17.33;;
40599;SDS011;26309;50.924;4.754;2022-11-20T11:20:33;26.15;;;15.32;;
40599;SDS011;26309;50.924;4.754;2022-11-20T11:23:00;27.60;;;14.68;;
40599;SDS011;26309;50.924;4.754;2022-11-20T11:28:21;20.67;;;11.45;;
40599;SDS011;26309;50.924;4.754;2022-11-20T11:30:51;22.48;;;10.27;;
40599;SDS011;26309;50.924;4.754;2022-11-20T11:33:21;17.88;;;9.75;;
40599;SDS011;26309;50.924;4.754;2022-11-20T11:36:01;17.67;;;9.65;;
40599;SDS011;26309;50.924;4.754;2022-11-20T11:41:06;15.50;;;7.95;;
40599;SDS011;26309;50.924;4.754;2022-11-20T11:43:48;14.77;;;7.95;;
40599;SDS011;26309;50.924;4.754;2022-11-20T11:46:44;13.50;;;6.97;;
40599;SDS011;26309;50.924;4.754;2022-11-20T11:49:19;12.52;;;6.70;;
40599;SDS011;26309;50.924;4.754;2022-11-20T11:52:30;12.52;;;6.53;;
40599;SDS011;26309;50.924;4.754;2022-11-20T11:54:46;12.55;;;6.85;;
40599;SDS011;26309;50.924;4.754;2022-11-20T12:00:24;11.02;;;5.60;;
40599;SDS011;26309;50.924;4.754;2022-11-20T12:05:45;9.90;;;5.07;;
40599;SDS011;26309;50.924;4.754;2022-11-20T12:08:26;9.13;;;4.78;;
40599;SDS011;26309;50.924;4.754;2022-11-20T12:16:49;10.00;;;3.88;;
40599;SDS011;26309;50.924;4.754;2022-11-20T12:19:17;9.43;;;3.55;;
40599;SDS011;26309;50.924;4.754;2022-11-20T12:30:21;8.30;;;3.05;;
40599;SDS011;26309;50.924;4.754;2022-11-20T12:33:04;6.18;;;3.17;;
40599;SDS011;26309;50.924;4.754;2022-11-20T12:44:10;7.78;;;2.80;;
40599;SDS011;26309;50.924;4.754;2022-11-20T12:50:23;7.75;;;3.28;;
40599;SDS011;26309;50.924;4.754;2022-11-20T12:55:45;7.10;;;3.17;;
40599;SDS011;26309;50.924;4.754;2022-11-20T13:01:21;9.37;;;3.17;;
40599;SDS011;26309;50.924;4.754;2022-11-20T13:04:19;7.13;;;3.07;;
40599;SDS011;26309;50.924;4.754;2022-11-20T13:07:00;6.35;;;3.10;;
40599;SDS011;26309;50.924;4.754;2022-11-20T13:09:28;6.10;;;3.70;;
40599;SDS011;26309;50.924;4.754;2022-11-20T13:17:36;7.57;;;3.60;;
40599;SDS011;26309;50.924;4.754;2022-11-20T13:20:03;5.90;;;3.15;;
40599;SDS011;26309;50.924;4.754;2022-11-20T13:22:44;7.72;;;3.28;;
40599;SDS011;26309;50.924;4.754;2022-11-20T13:25:28;10.10;;;3.78;;
40599;SDS011;26309;50.924;4.754;2022-11-20T13:27:57;7.57;;;3.25;;
40599;SDS011;26309;50.924;4.754;2022-11-20T13:30:28;9.83;;;4.00;;
40599;SDS011;26309;50.924;4.754;2022-11-20T13:32:58;9.23;;;3.60;;
40599;SDS011;26309;50.924;4.754;2022-11-20T13:35:54;8.68;;;3.55;;
40599;SDS011;26309;50.924;4.754;2022-11-20T13:38:21;6.67;;;3.37;;
40599;SDS011;26309;50.924;4.754;2022-11-20T13:40:55;7.88;;;3.90;;
40599;SDS011;26309;50.924;4.754;2022-11-20T13:43:48;5.97;;;3.28;;
40599;SDS011;26309;50.924;4.754;2022-11-20T13:46:14;6.78;;;3.90;;
40599;SDS011;26309;50.924;4.754;2022-11-20T13:48:44;9.43;;;3.75;;
40599;SDS011;26309;50.924;4.754;2022-11-20T13:51:16;8.95;;;4.10;;
40599;SDS011;26309;50.924;4.754;2022-11-20T13:54:13;9.00;;;3.63;;
40599;SDS011;26309;50.924;4.754;2022-11-20T14:02:01;8.73;;;4.30;;
40599;SDS011;26309;50.924;4.754;2022-11-20T14:04:29;8.67;;;3.80;;
40599;SDS011;26309;50.924;4.754;2022-11-20T14:06:59;6.97;;;4.27;;
40599;SDS011;26309;50.924;4.754;2022-11-20T14:09:26;9.63;;;3.47;;
40599;SDS011;26309;50.924;4.754;2022-11-20T14:11:56;5.33;;;3.87;;
40599;SDS011;26309;50.924;4.754;2022-11-20T14:14:23;5.60;;;3.40;;
40599;SDS011;26309;50.924;4.754;2022-11-20T14:16:51;5.13;;;3.53;;
40599;SDS011;26309;50.924;4.754;2022-11-20T14:21:52;4.60;;;2.87;;
40599;SDS011;26309;50.924;4.754;2022-11-20T14:24:39;6.70;;;3.50;;
40599;SDS011;26309;50.924;4.754;2022-11-20T14:27:04;7.67;;;3.67;;
40599;SDS011;26309;50.924;4.754;2022-11-20T14:29:47;7.27;;;3.27;;
40599;SDS011;26309;50.924;4.754;2022-11-20T14:32:16;7.30;;;3.50;;
40599;SDS011;26309;50.924;4.754;2022-11-20T14:34:44;5.37;;;3.40;;
40599;SDS011;26309;50.924;4.754;2022-11-20T14:37:16;4.47;;;2.90;;
40599;SDS011;26309;50.924;4.754;2022-11-20T14:39:53;7.67;;;3.27;;
40599;SDS011;26309;50.924;4.754;2022-11-20T14:42:24;4.07;;;2.83;;
40599;SDS011;26309;50.924;4.754;2022-11-20T14:44:52;6.67;;;2.90;;
40599;SDS011;26309;50.924;4.754;2022-11-20T14:47:23;5.07;;;3.00;;
40599;SDS011;26309;50.924;4.754;2022-11-20T14:49:54;4.17;;;3.10;;
40599;SDS011;26309;50.924;4.754;2022-11-20T14:52:25;4.17;;;2.77;;
40599;SDS011;26309;50.924;4.754;2022-11-20T14:54:56;5.23;;;3.03;;
40599;SDS011;26309;50.924;4.754;2022-11-20T14:57:29;4.83;;;2.90;;
40599;SDS011;26309;50.924;4.754;2022-11-20T15:00:30;6.23;;;2.97;;
40599;SDS011;26309;50.924;4.754;2022-11-20T15:02:50;5.00;;;2.97;;
40599;SDS011;26309;50.924;4.754;2022-11-20T15:05:17;3.40;;;2.87;;
40599;SDS011;26309;50.924;4.754;2022-11-20T15:07:50;3.50;;;2.90;;
40599;SDS011;26309;50.924;4.754;2022-11-20T15:10:29;4.63;;;3.07;;
40599;SDS011;26309;50.924;4.754;2022-11-20T15:16:01;3.43;;;2.83;;
40599;SDS011;26309;50.924;4.754;2022-11-20T15:18:38;5.13;;;2.70;;
40599;SDS011;26309;50.924;4.754;2022-11-20T15:21:13;3.00;;;2.73;;
40599;SDS011;26309;50.924;4.754;2022-11-20T15:23:40;4.30;;;2.90;;
40599;SDS011;26309;50.924;4.754;2022-11-20T15:26:07;4.47;;;2.97;;
40599;SDS011;26309;50.924;4.754;2022-11-20T15:28:41;3.80;;;2.90;;
40599;SDS011;26309;50.924;4.754;2022-11-20T15:31:12;4.43;;;3.20;;
40599;SDS011;26309;50.924;4.754;2022-11-20T15:33:40;9.03;;;3.10;;
40599;SDS011;26309;50.924;4.754;2022-11-20T15:36:06;5.90;;;3.53;;
40599;SDS011;26309;50.924;4.754;2022-11-20T15:38:31;5.60;;;3.40;;
40599;SDS011;26309;50.924;4.754;2022-11-20T15:40:57;3.90;;;3.50;;
40599;SDS011;26309;50.924;4.754;2022-11-20T15:43:23;4.60;;;4.20;;
40599;SDS011;26309;50.924;4.754;2022-11-20T15:45:49;7.30;;;4.10;;
40599;SDS011;26309;50.924;4.754;2022-11-20T15:48:19;6.87;;;4.53;;
40599;SDS011;26309;50.924;4.754;2022-11-20T15:53:36;8.80;;;5.07;;
40599;SDS011;26309;50.924;4.754;2022-11-20T15:56:03;8.37;;;5.07;;
40599;SDS011;26309;50.924;4.754;2022-11-20T15:58:29;7.93;;;5.30;;
40599;SDS011;26309;50.924;4.754;2022-11-20T16:00:55;11.63;;;5.03;;
40599;SDS011;26309;50.924;4.754;2022-11-20T16:03:21;7.27;;;5.00;;
40599;SDS011;26309;50.924;4.754;2022-11-20T16:05:47;9.30;;;5.20;;
40599;SDS011;26309;50.924;4.754;2022-11-20T16:08:13;12.73;;;5.47;;
40599;SDS011;26309;50.924;4.754;2022-11-20T16:10:39;14.07;;;5.10;;
40599;SDS011;26309;50.924;4.754;2022-11-20T16:13:11;9.57;;;4.77;;
40599;SDS011;26309;50.924;4.754;2022-11-20T16:16:04;10.37;;;4.67;;
40599;SDS011;26309;50.924;4.754;2022-11-20T16:18:34;9.33;;;4.90;;
40599;SDS011;26309;50.924;4.754;2022-11-20T16:21:00;15.37;;;5.00;;
40599;SDS011;26309;50.924;4.754;2022-11-20T16:23:26;14.70;;;4.87;;
40599;SDS011;26309;50.924;4.754;2022-11-20T16:25:52;8.17;;;4.80;;
40599;SDS011;26309;50.924;4.754;2022-11-20T16:28:18;10.63;;;4.73;;
40599;SDS011;26309;50.924;4.754;2022-11-20T16:30:44;14.50;;;4.87;;
40599;SDS011;26309;50.924;4.754;2022-11-20T16:33:11;11.83;;;5.10;;
40599;SDS011;26309;50.924;4.754;2022-11-20T16:35:39;10.60;;;4.63;;
40599;SDS011;26309;50.924;4.754;2022-11-20T16:38:05;12.90;;;4.93;;
40599;SDS011;26309;50.924;4.754;2022-11-20T16:40:31;13.63;;;4.70;;